Timeline UpdatesTrip UpdatesNews PostsPvt Posts♥♥Travel TipsAdmin PostsConv PostsFollowed PostsChat RequestsBlog PostsPNR Posts

Disclaimer
Search
 
 
Sat Nov 29, 2014 09:01:55 ISTHomeTrainsΣChainsAtlasPNRForumGalleryNewsFAQTripsMembersLoginFeedback
No Recent News for this Train
Other Trains in the News **new
Latest...
Tr.No.17406 Adilabad -Tirupati Express is cancelled o­n 27.04.2014.
Sat Apr 26, 2014 (03:22PM)
⇐ Return Journey: Train# 17405

17406/Krishna Express

Time-Table HAS CHANGED.
Sep 03 2014 (11:11AM)
Change Departure Station:
Change Arrival Station:
Post a Train Travel TipPost a Train Travel Tip **new
Post a Comment/Question/Picture/VideoPost a Comment/Question/Picture/Video
Inaugural Run
Wed Oct 02, 1974
Pantry/Catering
✕ NO Pantry Car
✓ Catering Avbl
Loco/Rake Reversals
SC/Secunderabad Junction (10); MUE/Mudkhed Junction (4);
RSA - Rake Sharing
17405/17406/17409/17410 has RSA.
Rake/Coach Composition
Loco-SLR-GS-D6-D5-D4-D3-D2-D1-S2-S1-C1-B1-GS-GS-GS-GS-GS-SLR
Loco
ADB - SC: KZJ WDG-3A. SC - TPTY: LGD WAP4/7.
News    PNR    Forum    Time-Table    Availability    Fare Chart    Map    Arr/Dep History    Trips    Gallery    ΣChains    X/O    Timeline    
Travel Time: 7h 53m    21 halts    Distance: 375 km    Avg Speed: 47 km/hr
Type: Mail/Express
Zone: SCR/South Central
Departs @ 13:32 (Avg 29m late)
Platform# ???
SMTWTFS
Peddavadiapudi/PVD 
Arrives @ 21:25 (Avg 6m late)
Platform# 1
SMTWTFS
Tirupati Main/TPTY 

21 halts. 57 intermediate Stations between Peddavadiapudi and Tirupati Main

Show ALL intermediate Stations  Show Old Time-Table

#TrkCodeStation NameX/OArrivesAvgDepartsAvgHaltPFDay#KmSpeedElevZoneAddress
1|--|ADBAdilabad (3)  -20:45+211-773.380248mSCRAdilabad, Telangana
2|--|KNVTKinwat (2)  21:03 21:19+1521:04 21:20+171m11-728.163319mSCRKinwat, Maharashtra
3|--|BHBKBodhadi Bujrug  21:44 21:34+1921:45 21:35+191m--1-713.475357mSCRKinwat, Maharashtra
4|--|SHSKSahasrakund  22:14 21:59+2722:15 22:00+281m--1-683.349402mSCRNanded, Maharashtra
5|--|HEMHimayatnagar  22:29 22:19+2422:30 22:20+251m--1-667.737398mSCRNanded, Maharashtra
6|--|BOKRBhokar  23:24 23:19+523:25 23:20+71m11-631.628460mSCRBhokar, Maharashtra
7|--|MUEMudkhed Junction (4)O↵¶00:05-200:15+610m22-610.434378mSCRMudkhed, Maharashtra
8|--|UMRIUmri (1)X  00:49-100:50+41m12-590.965381mSCRHuzur Sahib Nanded, Maharashtra
9|--|DABDharmabad (2)X  01:17+1401:18+181m12-561.535354mSCRDegaon, Maharashtra
10|--|BSXBasar (2)X  01:35+1401:37+172m12-551.653358mSCRDist Adilabad, Telangana
11|--|NZBNizamabad (3)  02:10+1702:15+215m12-522.371384mSCRNizamabad, Telangana
12|--|KMCKamareddi (3)  03:00 02:59+2703:01+271 2m12-470.467526mSCRNizamabad Dist., Telangana
13|--|AKEAkanapet (1)O  03:24+2703:25+271m12-444.792566mSCRMedak District., Telangana
14|--|MZLMirzapalli (1)  03:32+2703:33+271m12-433.943539mSCRMedak Dist., Telangana
15|=-|BMOBolarum (3)X  04:55+604:56+61m12-375.227597mSCRSecunderabad, Telangana
16/-=|MJFMalkajgiri (3)X  05:19+005:20+11m22-365.08535mSCRSecunderabad, Telangana
17|--|SCSecunderabad Junction (10)X05:45+1206:05+1220m62-361.643539mSCRSecunderabad 500003, Telangana
18/==/MLYMoula Ali (2)X  06:13+2506:14+261m12-355.957520mSCRSecunderabad, Telangana
19/==/CHZCharlapalli (2)  06:21+3106:22+321m22-349.276523mSCRRangareddy Dist., Telangana
20/==/BGBhongir (3)X  06:49+3506:50+361m22-315.297455mSCRNalgonda Dist., Telangana
21/==/RAGRaigir (2)X  06:54-06:55-1m22-308.873415mSCRNalgonda, Telangana
22/==/ALERAler (2)X  07:08+3807:09+401m22-293.072366mSCRNalgonda Dist., Telangana
23/==/PBPPembarti (2)  07:17+4107:18+431m22-283.441382mSCRWarangal Dist., Telangana
24/==/ZNJangaon (2)  07:26+4307:27+441m22-277.975380mSCRWarangal Dist., Telangana
25/==/RGPRaghunathpalli (2)  07:36+4707:37+471m22-266.684357mSCRWarangal Dist., Telangana
26/==/GNPGhanpur (2)  07:49+5007:50+531m22-249.843344mSCRWarangal Dist. / Enq Ph : 08711 220231, Telangana
27/==/KZJKazipet Junction (3)X  08:18+3908:20+462m22-230.051292mSCRWarangal Dist., Telangana
28/==/WLWarangal (3)  08:32+5608:34+562m12-219.874271mSCRWarangal., Telangana
29/==/NKDNekonda (2)  08:58+5908:59+591m12-190.177236mSCRWarangal Dist., Telangana
30/==/KDMKesamudram (2)X  09:11+5809:12+581m12-174.681223mSCRWarangal Dist., Telangana
31/==/MABDMahbubabad (2)  09:23+1:0609:24+1:071m12-159.7107200mSCRWarangal Dist., Telangana
32/==/GLAGarla (2)X  09:35-09:36-1m12-140.018156mSCRKhammam Dist., Telangana
33/==/DKJDornakal Junction (3)  09:52+1:0209:54+1:012m22-135.392153mSCRWarangal District, Telangana
34/==/KMTKhammam (2)X  10:09+5410:11+1:032m12-112.288118mSCRKhammam 507001, Telangana
35/==/BKLBona Kalu (2)  10:30+1:2110:31+1:211m12-84.48597mSCRKhammam Dist., Telangana
36/==/MDRMadhira (2)  10:43+1:2610:44+1:261m12-67.48461mSCRKhammam Dist., Telangana
37/==/YPErrupalem (2)X  10:55+1:2710:56+1:301m--2-52.01857mSCRKhammam Dist., Telangana
38/==/KIKondapalli (2)XO  12:18+2912:20+312m22-27.42735mSCRKondapalli, Andhra Pradesh
39/==/BZAVijayawada Junction (10)X  12:55+2613:15+2320m102-11.94524mSCRVijayawada 520001, Andhra Pradesh
40/==/PVDPeddavadiapudi (3)»  13:31+2813:32+291m--20.06520mSCRKL University to NH 5, Andhra Pradesh
41/==/DIGDuggirala (3)X  13:41+3413:42+341m--29.73616mSCRDuggirala, Andhra Pradesh
42/==/TELTenali Junction (5)  13:58+3214:00+332m3219.47716mSCRTel: 08644-227834, Andhra Pradesh
43/==/TSRTsunduru (3)  14:09+3614:10+361m--230.95712mSCRTsunduru, Andhra Pradesh
44/==/NDONidubrolu (3)  14:21+3714:22+391m--241.4699mSCRNidubrolu, Andhra Pradesh
45/==/BPPBapatla (3)X  14:40+3814:41+401m--262.08210mSCRBapatla, Andhra Pradesh
46/==/CLXChirala (4)  14:52+4614:53+481m--277.1598mSCRChirala, Andhra Pradesh
47/==/VTMVetapalem (3)X  15:01+4915:02+501m--284.9758mSCRVetapalem, Andhra Pradesh
48/==/CJMChinnaganjam (3)  15:12+5115:13+531m--297.4779mSCRChinna Ganjam, Andhra Pradesh
49/==/ANBAmmanabrolu (3)X  15:24+5415:25+551m--2111.54316mSCRAmmanabrolu, Andhra Pradesh
50/==/OGLOngole (3)  15:46+5215:48+542m32126.47012mSCROngole, Andhra Pradesh
51/==/TNRTanguturu (3)  16:04+5816:05+1:001m12145.07210mSCRTanguturu, Andhra Pradesh
52/==/SKMSingarayakonda (2)X  16:13+5616:14+571m22154.69926mSCRSingarayakonda, Andhra Pradesh
53/==/KVZKavali (4)X  16:37+3616:39+362m22192.48221mSCRKavali, Andhra Pradesh
54/==/BTTRBitragunta (2)X  16:51-16:52-1m22208.84515mSCRBitragunta, Andhra Pradesh
55/==/NLRNellore (4)  17:38+1517:40+152m32243.24821mSCRNellore, Andhra Pradesh
56/==/VDEVedayapalem (2)XO  17:49-17:50-1m22250.41927mSCRNellore, Andhra Pradesh
57/==/GDRGudur Junction (3)  19:08 19:28+619:10 19:30+72m32281.66819mSCRGudur, Andhra Pradesh
58/==/VDDVendodu (2)X  19:27 19:47+2519:28 19:48+261m--2300.89955mSCRNellore, Andhra Pradesh
59/==/VKIVenkatagiri (3)  19:40 19:58+3019:41 20:00+301 2m22317.48277mSCRNellore District, Andhra Pradesh
60/==/KHTSri Kalahasti (2)X  20:01 20:18+3020:02 20:20+311 2m12341.87068mSCRChittoor District, Andhra Pradesh
61/==/RURenigunta Junction (5)O  20:35 20:40+3320:40 20:45+325m--2365.015113mSCRChittoor District, Andhra Pradesh
62/==/TPTYTirupati Main (5)•  21:25+6-12374.9-150mSCRChittoor Distt, Andhra Pradesh
Scroll to Top
Scroll to Bottom


Go to Mobile site